Аэропорт: Ульяновск-Восточный. Ульяновск

ICAO: UWLW

METAR:
2024-04-22 22:00:00
UWLW 222200Z 30004MPS CAVOK 15/10 Q1016 R20/CLRD60 NOSIG RMK QFE757/1009
TAF:
2024-04-22 19:50:00
TAF UWLW 221950Z 2221/2321 29003MPS 9999 BKN030 TX18/2311Z TN11/2303Z 
  TEMPO 2221/2305 BKN016CB 
  BECMG 2305/2306 31005G11MPS 
  TEMPO 2306/2321 35008G16MPS 3100 -SHRA BKN016CB